createdAt,value
2023-12-01T00:00:37.312Z,83.20
2023-12-01T00:03:25.274Z,69.10
2023-12-01T00:05:53.137Z,76.80
2023-12-01T00:08:20.906Z,75.30
2023-12-01T00:10:48.692Z,90.90
2023-12-01T00:13:16.461Z,74.20
2023-12-01T00:15:44.297Z,73.70
2023-12-01T00:18:12.182Z,80.30
2023-12-01T00:20:40.044Z,77.70
2023-12-01T00:23:07.927Z,82.80
2023-12-01T00:25:35.665Z,81.90
2023-12-01T00:28:03.879Z,88.90
2023-12-01T00:30:33.638Z,79.50
2023-12-01T00:33:04.609Z,66.00
2023-12-01T00:35:32.515Z,67.70
2023-12-01T00:38:00.340Z,79.30
2023-12-01T00:40:28.161Z,70.40
2023-12-01T00:42:56.076Z,76.70
2023-12-01T00:45:23.949Z,85.70
2023-12-01T00:47:51.803Z,76.90
2023-12-01T00:50:20.596Z,76.50
2023-12-01T00:52:48.434Z,92.50
2023-12-01T00:55:16.305Z,80.70
2023-12-01T00:57:44.149Z,79.10
2023-12-01T01:00:12.506Z,76.30
2023-12-01T01:02:40.643Z,81.50
2023-12-01T01:05:09.409Z,79.10
2023-12-01T01:07:37.303Z,87.00
2023-12-01T01:10:05.592Z,86.90
2023-12-01T01:12:45.543Z,86.50
2023-12-01T01:15:13.460Z,70.50
2023-12-01T01:17:41.352Z,85.30
2023-12-01T01:20:11.150Z,79.10
2023-12-01T01:22:39.394Z,77.70
2023-12-01T01:25:07.911Z,73.30
2023-12-01T01:27:35.709Z,88.70
2023-12-01T01:30:03.792Z,80.60
2023-12-01T01:32:31.579Z,74.90
2023-12-01T01:34:59.251Z,87.20
2023-12-01T01:37:27.030Z,70.30
2023-12-01T01:39:54.783Z,68.60
2023-12-01T01:42:22.583Z,81.60
2023-12-01T01:44:50.469Z,85.70
2023-12-01T01:47:18.251Z,81.00
2023-12-01T01:49:46.876Z,80.70
2023-12-01T01:52:15.210Z,77.40
2023-12-01T01:54:43.458Z,71.10
2023-12-01T01:57:11.292Z,79.50
2023-12-01T01:59:39.050Z,76.40
2023-12-01T02:02:06.963Z,76.00
2023-12-01T02:04:34.754Z,67.90
2023-12-01T02:07:02.811Z,60.90
2023-12-01T02:09:36.698Z,74.30
2023-12-01T02:12:04.839Z,73.20
2023-12-01T02:14:32.493Z,72.30
2023-12-01T02:17:00.319Z,75.50
2023-12-01T02:19:28.063Z,76.60
2023-12-01T02:21:56.526Z,67.50
2023-12-01T02:24:24.316Z,67.90
2023-12-01T02:26:52.040Z,73.10
2023-12-01T02:29:19.763Z,76.60
2023-12-01T02:31:47.546Z,73.30
2023-12-01T02:34:15.357Z,68.90
2023-12-01T02:36:43.162Z,68.70
2023-12-01T02:39:14.569Z,74.50
2023-12-01T02:41:42.581Z,79.20
2023-12-01T02:44:10.420Z,71.80
2023-12-01T02:46:38.301Z,62.90
2023-12-01T02:49:06.183Z,67.70
2023-12-01T02:51:34.009Z,63.00
2023-12-01T02:54:01.943Z,65.50
2023-12-01T02:56:29.671Z,69.60
2023-12-01T02:58:57.365Z,60.50
2023-12-01T03:01:25.201Z,67.20
2023-12-01T03:03:53.064Z,68.60
2023-12-01T03:06:20.918Z,71.50
2023-12-01T03:08:48.790Z,73.20
2023-12-01T03:11:16.481Z,66.30
2023-12-01T03:13:44.172Z,68.70
2023-12-01T03:16:12.361Z,67.90
2023-12-01T03:18:40.983Z,64.80
2023-12-01T03:21:14.555Z,76.50
2023-12-01T03:23:43.777Z,68.30
2023-12-01T03:26:11.629Z,73.30
2023-12-01T03:28:39.326Z,76.50
2023-12-01T03:31:07.324Z,64.50
2023-12-01T03:33:35.145Z,64.20
2023-12-01T03:36:03.122Z,70.00
2023-12-01T03:38:30.930Z,61.00
2023-12-01T03:41:01.291Z,58.40
2023-12-01T03:43:29.074Z,60.10
2023-12-01T03:45:56.807Z,66.10
2023-12-01T03:48:24.544Z,65.00
2023-12-01T03:50:52.659Z,61.40
2023-12-01T03:53:20.318Z,58.30
2023-12-01T03:55:47.990Z,62.70
2023-12-01T03:58:15.711Z,58.20
2023-12-01T04:00:43.499Z,62.30
2023-12-01T04:03:11.464Z,59.90
2023-12-01T04:05:39.214Z,62.00
2023-12-01T04:08:06.924Z,53.20
2023-12-01T04:10:34.819Z,63.40
2023-12-01T04:13:08.663Z,58.50
2023-12-01T04:15:37.824Z,58.80
2023-12-01T04:18:10.098Z,60.30
2023-12-01T04:20:40.129Z,68.20
2023-12-01T04:23:11.575Z,74.40
2023-12-01T04:25:40.807Z,72.10
2023-12-01T04:28:08.634Z,73.60
2023-12-01T04:30:36.596Z,69.60
2023-12-01T04:33:04.641Z,53.90
2023-12-01T04:35:37.272Z,53.70
2023-12-01T04:38:05.230Z,58.50
2023-12-01T04:40:33.704Z,68.40
2023-12-01T04:43:02.490Z,71.30
2023-12-01T04:45:34.400Z,61.00
2023-12-01T04:48:02.719Z,61.70
2023-12-01T04:50:32.242Z,77.30
2023-12-01T04:53:01.986Z,76.30
2023-12-01T04:55:30.965Z,66.10
2023-12-01T04:58:01.825Z,68.70
2023-12-01T05:00:29.687Z,70.20
2023-12-01T05:03:08.226Z,65.20
2023-12-01T05:05:38.589Z,73.20
2023-12-01T05:08:09.238Z,65.60
2023-12-01T05:10:38.718Z,82.20
2023-12-01T05:13:07.945Z,65.90
2023-12-01T05:15:37.532Z,74.40
2023-12-01T05:18:07.355Z,60.80
2023-12-01T05:20:35.321Z,77.30
2023-12-01T05:23:07.184Z,78.50
2023-12-01T05:28:04.979Z,59.20
2023-12-01T05:30:34.585Z,81.00
2023-12-01T05:33:05.736Z,75.10
2023-12-01T05:35:38.444Z,64.20
2023-12-01T05:38:06.972Z,74.10
2023-12-01T05:40:37.366Z,88.20
2023-12-01T05:43:07.436Z,108.90
2023-12-01T05:45:38.913Z,97.00
2023-12-01T05:48:10.628Z,77.40
2023-12-01T07:01:52.926Z,76.60
2023-12-01T07:04:20.776Z,66.40
2023-12-01T07:06:48.740Z,75.70
2023-12-01T07:09:18.326Z,92.50
2023-12-01T07:11:46.963Z,84.30
2023-12-01T07:14:14.796Z,59.40
2023-12-01T07:16:43.411Z,73.80
2023-12-01T07:19:12.105Z,73.50
2023-12-01T07:21:39.884Z,65.60
2023-12-01T07:24:10.306Z,74.70
2023-12-01T07:26:38.141Z,67.10
2023-12-01T07:29:06.014Z,80.00
2023-12-01T07:31:38.980Z,76.10
2023-12-01T07:34:06.764Z,67.50
2023-12-01T07:36:40.625Z,60.20
2023-12-01T07:39:10.610Z,62.80
2023-12-01T07:41:39.243Z,64.40
2023-12-01T07:44:07.066Z,58.20
2023-12-01T07:46:35.036Z,53.80
2023-12-01T07:49:09.097Z,54.50
2023-12-01T07:51:37.678Z,50.90
2023-12-01T07:54:05.476Z,71.70
2023-12-01T07:56:33.287Z,59.90
2023-12-01T07:59:01.088Z,45.10
2023-12-01T08:01:28.832Z,37.90
2023-12-01T08:03:56.674Z,50.60
2023-12-01T08:06:24.501Z,51.00
2023-12-01T08:08:52.244Z,48.80
2023-12-01T08:11:20.356Z,45.70
2023-12-01T08:13:48.404Z,39.40
2023-12-01T08:16:16.297Z,51.70
2023-12-01T08:18:44.075Z,37.10
2023-12-01T08:21:12.672Z,46.70
2023-12-01T08:23:41.661Z,54.60
2023-12-01T08:26:12.703Z,50.50
2023-12-01T08:28:40.400Z,54.30
2023-12-01T08:31:08.512Z,47.90
2023-12-01T08:33:36.906Z,52.10
2023-12-01T08:36:05.087Z,51.20
2023-12-01T08:38:33.153Z,47.80
2023-12-01T08:41:00.936Z,44.30
2023-12-01T08:43:31.101Z,46.00
2023-12-01T08:45:59.496Z,48.80
2023-12-01T08:48:27.330Z,43.50
2023-12-01T08:50:55.324Z,47.70
2023-12-01T08:53:25.837Z,42.90
2023-12-01T08:55:54.294Z,45.10
2023-12-01T08:58:23.466Z,40.90
2023-12-01T09:00:51.199Z,35.70
2023-12-01T09:03:19.031Z,35.00
2023-12-01T09:05:46.916Z,40.00
2023-12-01T09:08:15.503Z,39.50
2023-12-01T09:10:43.215Z,32.00
2023-12-01T09:13:11.145Z,40.80
2023-12-01T09:15:38.888Z,36.00
2023-12-01T09:18:06.800Z,53.00
2023-12-01T09:20:34.586Z,40.70
2023-12-01T09:23:02.360Z,43.40
2023-12-01T09:25:30.145Z,40.60
2023-12-01T09:27:58.372Z,45.30
2023-12-01T09:30:26.142Z,41.10
2023-12-01T09:32:54.054Z,50.30
2023-12-01T09:35:54.101Z,37.00
2023-12-01T09:38:12.394Z,34.60
2023-12-01T09:40:44.897Z,39.70
2023-12-01T09:43:15.151Z,44.30
2023-12-01T09:45:43.964Z,43.30
2023-12-01T09:48:15.010Z,42.00
2023-12-01T10:06:00.820Z,59.10
2023-12-01T10:08:28.793Z,43.20
2023-12-01T10:10:56.767Z,41.50
2023-12-01T10:13:24.663Z,42.90
2023-12-01T10:15:52.936Z,34.70
2023-12-01T10:18:23.263Z,43.00
2023-12-01T10:20:59.435Z,35.70
2023-12-01T10:23:29.124Z,49.80
2023-12-01T10:25:58.425Z,39.20
2023-12-01T10:28:44.598Z,34.40
2023-12-01T10:31:16.550Z,38.50
2023-12-01T10:33:48.934Z,47.60
2023-12-01T10:36:20.317Z,43.00
2023-12-01T10:38:51.718Z,47.10
2023-12-01T10:41:23.912Z,40.60
2023-12-01T10:43:53.489Z,39.30
2023-12-01T10:46:25.402Z,52.30
2023-12-01T10:48:55.478Z,47.80
2023-12-01T10:51:24.343Z,47.10
2023-12-01T10:53:57.620Z,40.80
2023-12-01T10:56:33.109Z,51.20
2023-12-01T10:59:02.662Z,39.70
2023-12-01T11:01:30.989Z,45.00
2023-12-01T11:04:01.916Z,36.50
2023-12-01T11:06:42.339Z,42.40
2023-12-01T11:09:32.143Z,32.10
2023-12-01T11:12:13.550Z,34.50
2023-12-01T11:14:43.012Z,38.60
2023-12-01T11:17:11.260Z,41.70
2023-12-01T11:19:40.720Z,39.30
2023-12-01T11:22:38.564Z,42.70
2023-12-01T11:25:06.922Z,39.70
2023-12-01T11:27:35.709Z,48.20
2023-12-01T11:30:10.131Z,50.80
2023-12-01T11:32:43.132Z,40.40
2023-12-01T11:35:12.428Z,48.90
2023-12-01T11:38:01.479Z,38.40
2023-12-01T11:40:39.899Z,35.80
2023-12-01T11:43:17.356Z,30.20
2023-12-01T11:45:50.790Z,34.20
2023-12-01T11:48:19.423Z,32.30
2023-12-01T11:50:47.932Z,35.70
2023-12-01T11:57:05.783Z,46.30
2023-12-01T11:59:32.646Z,34.90
2023-12-01T12:01:59.306Z,36.70
2023-12-01T12:04:25.904Z,36.30
2023-12-01T12:06:53.055Z,33.90
2023-12-01T12:09:20.335Z,41.30
2023-12-01T12:11:55.166Z,43.80
2023-12-01T12:14:27.427Z,42.50
2023-12-01T12:16:54.521Z,35.20
2023-12-01T12:19:22.512Z,45.20
2023-12-01T12:21:50.029Z,43.20
2023-12-01T12:24:17.114Z,44.90
2023-12-01T12:26:55.814Z,43.90
2023-12-01T12:29:24.394Z,38.50
2023-12-01T12:31:52.416Z,48.70
2023-12-01T12:34:21.294Z,55.80
2023-12-01T12:36:51.123Z,59.40
2023-12-01T12:39:18.293Z,53.20
2023-12-01T12:41:59.683Z,49.70
2023-12-01T12:44:30.569Z,43.80
2023-12-01T12:47:05.355Z,41.30
2023-12-01T12:49:33.302Z,44.00
2023-12-01T12:52:01.838Z,41.30
2023-12-01T12:54:29.551Z,38.20
2023-12-01T12:56:56.634Z,37.90
2023-12-01T12:59:24.081Z,48.20
2023-12-01T13:01:51.764Z,26.60
2023-12-01T13:04:19.689Z,41.70
2023-12-01T13:06:49.349Z,53.90
2023-12-01T13:09:18.382Z,49.00
2023-12-01T13:11:45.702Z,50.10
2023-12-01T13:14:14.604Z,44.90
2023-12-01T13:16:51.937Z,55.70
2023-12-01T13:19:26.487Z,58.30
2023-12-01T13:21:55.989Z,61.50
2023-12-01T13:24:25.273Z,53.00
2023-12-01T13:26:52.509Z,71.70
2023-12-01T13:29:19.152Z,57.40
2023-12-01T13:31:46.296Z,50.20
2023-12-01T13:34:13.516Z,50.90
2023-12-01T13:36:40.096Z,61.90
2023-12-01T13:39:06.952Z,64.50
2023-12-01T13:41:33.798Z,43.20
2023-12-01T13:44:00.449Z,57.60
2023-12-01T13:46:27.685Z,46.50
2023-12-01T13:48:54.468Z,48.70
2023-12-01T13:51:21.577Z,49.80
2023-12-01T13:53:48.655Z,50.90
2023-12-01T13:56:15.280Z,48.90
2023-12-01T13:58:43.905Z,48.20
2023-12-01T14:01:12.244Z,55.50
2023-12-01T14:03:39.951Z,49.70
2023-12-01T14:06:08.052Z,63.00
2023-12-01T14:08:35.355Z,48.40
2023-12-01T14:11:03.062Z,46.40
2023-12-01T14:13:29.702Z,51.70
2023-12-01T14:15:56.447Z,52.40
2023-12-01T14:18:23.277Z,58.40
2023-12-01T14:20:50.254Z,58.00
2023-12-01T14:23:16.779Z,58.40
2023-12-01T14:25:43.374Z,49.00
2023-12-01T14:28:09.938Z,60.30
2023-12-01T14:30:36.660Z,43.10
2023-12-01T14:33:03.336Z,49.80
2023-12-01T14:35:29.991Z,61.30
2023-12-01T14:37:56.530Z,51.60
2023-12-01T14:40:23.709Z,54.90
2023-12-01T14:42:50.726Z,46.20
2023-12-01T14:45:17.439Z,58.50
2023-12-01T14:47:46.460Z,67.00
2023-12-01T14:50:14.189Z,59.60
2023-12-01T14:52:40.680Z,64.40
2023-12-01T14:55:07.627Z,55.10
2023-12-01T14:57:34.284Z,63.20
2023-12-01T15:00:01.165Z,67.00
2023-12-01T15:02:28.213Z,62.10
2023-12-01T15:04:55.222Z,62.00
2023-12-01T15:07:22.228Z,75.20
2023-12-01T15:09:48.786Z,53.30
2023-12-01T15:12:15.777Z,72.70
2023-12-01T15:14:42.418Z,73.40
2023-12-01T15:17:09.372Z,59.00
2023-12-01T15:19:36.294Z,65.90
2023-12-01T15:22:04.659Z,73.10
2023-12-01T15:24:31.796Z,68.10
2023-12-01T15:26:59.389Z,63.80
2023-12-01T15:29:26.072Z,74.70
2023-12-01T15:31:52.664Z,79.70
2023-12-01T15:34:19.252Z,77.60
2023-12-01T15:36:47.063Z,70.00
2023-12-01T15:39:14.180Z,67.00
2023-12-01T15:41:40.965Z,64.60
2023-12-01T15:44:07.508Z,59.50
2023-12-01T15:46:34.896Z,67.10
2023-12-01T15:49:01.963Z,64.00
2023-12-01T15:51:29.658Z,67.00
2023-12-01T15:53:56.576Z,60.80
2023-12-01T15:56:23.191Z,71.30
2023-12-01T15:58:49.758Z,65.70
2023-12-01T16:01:16.404Z,76.30
2023-12-01T16:03:43.747Z,81.60
2023-12-01T16:06:10.684Z,74.90
2023-12-01T16:08:37.270Z,80.90
2023-12-01T16:11:04.902Z,75.90
2023-12-01T16:13:32.130Z,75.80
2023-12-01T16:15:58.583Z,70.70
2023-12-01T16:18:25.692Z,66.30
2023-12-01T16:20:52.657Z,86.90
2023-12-01T16:23:20.098Z,72.30
2023-12-01T16:25:47.795Z,83.50
2023-12-01T16:28:14.316Z,78.20
2023-12-01T16:30:40.932Z,79.70
2023-12-01T16:33:07.935Z,75.30
2023-12-01T16:35:34.894Z,68.60
2023-12-01T16:38:04.224Z,77.90
2023-12-01T16:40:30.737Z,76.60
2023-12-01T16:42:57.461Z,76.70
2023-12-01T16:45:25.037Z,74.40
2023-12-01T16:47:51.839Z,75.50
2023-12-01T16:50:21.198Z,78.90
2023-12-01T16:52:51.695Z,86.30
2023-12-01T16:55:18.241Z,76.20
2023-12-01T16:57:48.062Z,83.90
2023-12-01T17:00:18.349Z,76.00
2023-12-01T17:02:45.803Z,84.20
2023-12-01T17:05:12.535Z,71.00
2023-12-01T17:07:41.533Z,80.70
2023-12-01T17:10:08.997Z,86.90
2023-12-01T17:12:35.430Z,99.60
2023-12-01T17:15:04.288Z,89.00
2023-12-01T17:17:31.055Z,77.80
2023-12-01T17:19:58.007Z,80.90
2023-12-01T17:22:24.558Z,67.00
2023-12-01T17:24:51.000Z,74.60
2023-12-01T17:27:17.559Z,83.30
2023-12-01T17:29:44.094Z,65.50
2023-12-01T17:32:10.890Z,83.70
2023-12-01T17:34:37.894Z,72.90
2023-12-01T17:37:05.435Z,61.90
2023-12-01T17:39:32.074Z,67.80
2023-12-01T17:42:00.278Z,72.80
2023-12-01T17:44:37.130Z,66.30
2023-12-01T17:47:08.988Z,73.00
2023-12-01T17:49:35.615Z,68.20
2023-12-01T17:52:02.781Z,73.00
2023-12-01T17:54:30.084Z,67.90
2023-12-01T17:56:57.024Z,76.70
2023-12-01T17:59:25.317Z,92.10
2023-12-01T18:01:52.463Z,78.50
2023-12-01T18:04:19.075Z,80.40
2023-12-01T18:06:47.888Z,80.30
2023-12-01T18:09:14.318Z,70.60
2023-12-01T18:11:41.765Z,69.00
2023-12-01T18:14:08.428Z,77.30
2023-12-01T18:16:38.570Z,65.20
2023-12-01T18:19:05.657Z,69.30
2023-12-01T18:21:32.856Z,77.90
2023-12-01T18:23:59.796Z,80.50
2023-12-01T18:26:26.916Z,76.30
2023-12-01T18:28:56.675Z,67.00
2023-12-01T18:31:23.121Z,76.60
2023-12-01T18:33:49.793Z,81.30
2023-12-01T18:36:16.449Z,78.20
2023-12-01T18:38:46.125Z,77.60
2023-12-01T18:41:13.040Z,88.80
2023-12-01T18:43:39.871Z,78.40
2023-12-01T18:46:07.073Z,79.70
2023-12-01T18:48:38.106Z,85.00
2023-12-01T18:51:08.460Z,91.50
2023-12-01T18:53:35.070Z,95.20
2023-12-01T18:56:01.635Z,85.70
2023-12-01T18:58:28.236Z,101.00
2023-12-01T19:00:54.788Z,91.10
2023-12-01T19:03:24.983Z,109.40
2023-12-01T19:05:51.946Z,90.60
2023-12-01T19:08:18.588Z,93.30
2023-12-01T19:10:45.879Z,101.70
2023-12-01T19:13:12.843Z,91.40
2023-12-01T19:15:39.697Z,87.10
2023-12-01T19:18:08.688Z,98.00
2023-12-01T19:20:35.442Z,109.00
2023-12-01T19:23:05.007Z,93.10
2023-12-01T19:25:31.828Z,103.20
2023-12-01T19:27:58.624Z,120.10
2023-12-01T19:30:25.537Z,111.40
2023-12-01T19:32:52.253Z,125.50
2023-12-01T19:35:19.090Z,112.20
2023-12-01T19:37:45.690Z,106.90
2023-12-01T19:40:12.518Z,117.90
2023-12-01T19:42:39.570Z,116.80
2023-12-01T19:45:07.294Z,113.10
2023-12-01T19:47:33.953Z,95.10
2023-12-01T19:50:01.576Z,136.70
2023-12-01T19:52:29.778Z,115.50
2023-12-01T19:54:56.745Z,113.90
2023-12-01T19:57:26.274Z,113.40
2023-12-01T19:59:53.404Z,125.20
2023-12-01T20:02:20.407Z,151.70
2023-12-01T20:04:47.152Z,135.90
2023-12-01T20:07:15.643Z,104.00
2023-12-01T20:09:42.574Z,116.80
2023-12-01T20:12:09.562Z,127.30
2023-12-01T20:14:36.045Z,113.90
2023-12-01T20:17:04.209Z,119.10
2023-12-01T20:19:30.944Z,107.20
2023-12-01T20:21:59.998Z,124.10
2023-12-01T20:24:26.630Z,108.30
2023-12-01T20:26:53.716Z,115.80
2023-12-01T20:29:21.922Z,96.40
2023-12-01T20:31:48.363Z,118.50
2023-12-01T20:34:14.907Z,110.40
2023-12-01T20:36:43.252Z,123.80
2023-12-01T20:39:10.065Z,120.70
2023-12-01T20:41:39.014Z,133.30
2023-12-01T20:44:05.624Z,103.40
2023-12-01T20:46:32.189Z,102.90
2023-12-01T20:49:02.351Z,102.30
2023-12-01T20:51:29.193Z,103.80
2023-12-01T20:53:56.863Z,101.90
2023-12-01T20:56:24.116Z,113.10
2023-12-01T20:58:51.077Z,109.70
2023-12-01T21:01:19.147Z,106.80
2023-12-01T21:03:48.024Z,107.70
2023-12-01T21:06:15.747Z,108.90
2023-12-01T21:08:42.211Z,110.50
2023-12-01T21:11:09.005Z,104.80
2023-12-01T21:13:35.632Z,103.70
2023-12-01T21:16:03.596Z,108.50
2023-12-01T21:18:30.455Z,111.60
2023-12-01T21:20:57.030Z,107.90
2023-12-01T21:23:24.511Z,128.00
2023-12-01T21:26:12.001Z,92.40
2023-12-01T21:28:39.066Z,94.70
2023-12-01T21:31:06.782Z,97.20
2023-12-01T21:33:36.267Z,108.90
2023-12-01T21:36:15.061Z,109.90
2023-12-01T21:38:46.889Z,99.00
2023-12-01T21:41:21.342Z,95.90
2023-12-01T21:43:47.975Z,106.60
2023-12-01T21:46:14.591Z,91.50
2023-12-01T21:48:43.874Z,119.80
2023-12-01T21:51:10.724Z,106.80
2023-12-01T21:53:37.820Z,112.40
2023-12-01T21:56:04.647Z,103.70
2023-12-01T21:58:31.065Z,107.50
2023-12-01T22:00:58.171Z,96.40
2023-12-01T22:03:25.459Z,111.40
2023-12-01T22:05:52.888Z,112.80
2023-12-01T22:08:19.426Z,98.70
2023-12-01T22:10:45.940Z,115.70
2023-12-01T22:13:12.490Z,114.90
2023-12-01T22:15:41.070Z,115.00
2023-12-01T22:18:08.453Z,105.00
2023-12-01T22:20:35.871Z,113.00
2023-12-01T22:23:07.943Z,102.30
2023-12-01T22:25:34.848Z,91.20
2023-12-01T22:28:01.580Z,97.80
2023-12-01T22:30:30.370Z,110.10
2023-12-01T22:32:57.122Z,118.70
2023-12-01T22:35:23.772Z,120.10
2023-12-01T22:37:50.613Z,97.50
2023-12-01T22:40:17.904Z,95.90
2023-12-01T22:42:44.746Z,121.40
2023-12-01T22:45:11.286Z,125.50
2023-12-01T22:47:37.794Z,106.20
2023-12-01T22:50:04.629Z,117.80
2023-12-01T22:52:31.636Z,118.40
2023-12-01T22:54:58.114Z,112.10
2023-12-01T22:57:24.745Z,111.00
2023-12-01T22:59:53.446Z,110.30
2023-12-01T23:02:20.098Z,108.90
2023-12-01T23:04:47.028Z,112.10
2023-12-01T23:07:38.203Z,100.90
2023-12-01T23:10:34.787Z,124.70
2023-12-01T23:13:04.701Z,115.70
2023-12-01T23:15:31.162Z,99.60
2023-12-01T23:17:59.502Z,110.80
2023-12-01T23:20:27.713Z,142.50
2023-12-01T23:22:55.169Z,118.10
2023-12-01T23:25:21.752Z,124.00
2023-12-01T23:27:48.320Z,141.30
2023-12-01T23:30:15.136Z,129.70
2023-12-01T23:32:41.656Z,110.70
2023-12-01T23:35:08.357Z,113.00
2023-12-01T23:37:35.322Z,110.20
2023-12-01T23:40:03.925Z,108.70
2023-12-01T23:42:31.197Z,109.70
2023-12-01T23:44:58.338Z,122.00
2023-12-01T23:47:25.036Z,102.30
2023-12-01T23:49:51.550Z,106.70
2023-12-01T23:52:18.198Z,116.90
2023-12-01T23:54:44.678Z,118.50
2023-12-01T23:57:13.721Z,116.20
2023-12-01T23:59:40.296Z,101.80
